Buoy 46762

sailwx.info

Track history (hours):
 
Tides and Currents Weather Stations Pressure Air Temp Water Temp Dewpoint Dewpoint Depression Visibility Wind Speed Wind Dir Waves Ship Positions

Drifting buoy 46762

Last reported at 2014-Nov-24 00:00 UTC. Time now 2014-Nov-24 01:16 UTC.
Position N 53°41' W 143°16'.

Barometer 1003.2 mb
Water temperature 9.2 ° C

Date/timePositionNaut miles runAvg speedWind from/ knotsBaromVisibWave heightAir tempDewpointWater temp
2014-Nov-24 00:00N 53°41' W 143°16'1 1.3 1003.2 9.2
2014-Nov-23 23:00N 53°40' W 143°15'1 0.7 1003.2 9.2
2014-Nov-23 22:00N 53°40' W 143°14'1 1.2 1003.2 9.2
2014-Nov-23 21:00N 53°41' W 143°14'0 0.0 1003.3 9.2
2014-Nov-23 20:00N 53°41' W 143°14'0 0.4 1003.2 9.2
2014-Nov-23 19:00N 53°41' W 143°15'1 0.3 1002.9 9.2
2014-Nov-23 17:00N 53°41' W 143°16'0 0.0 1002.5 9.2
2014-Nov-23 16:00N 53°41' W 143°16'1 0.7 1002.2 9.2
2014-Nov-23 15:00N 53°41' W 143°16'2 1.9 1002.1 9.2
2014-Nov-23 14:00N 53°40' W 143°19'0 0.0 1002.0 9.2
2014-Nov-23 13:00N 53°40' W 143°19'0 0.0 1001.8 9.2
2014-Nov-23 12:00N 53°40' W 143°19'1 1.4 1001.6 9.2
2014-Nov-23 11:00N 53°39' W 143°17'1 1.4 1001.1 9.2
2014-Nov-23 10:00N 53°40' W 143°19'1 0.7 1000.7 9.2
2014-Nov-23 08:00N 53°39' W 143°17'2 0.9 999.4 9.2
2014-Nov-23 06:00N 53°39' W 143°14'1 1.3 997.9 9.2
2014-Nov-23 05:00N 53°40' W 143°14'2 1.9 997.3 9.2
2014-Nov-23 04:00N 53°40' W 143°17'0 0.0 996.7 9.2
2014-Nov-23 03:00N 53°40' W 143°17'2 1.6 996.0 9.2
2014-Nov-23 02:00N 53°41' W 143°19'1 0.5 995.1 9.2
2014-Nov-23 00:00N 53°41' W 143°17'0 0.0 993.6 9.2
2014-Nov-22 23:00N 53°41' W 143°17'2 2.4 993.0 9.2
2014-Nov-22 22:00N 53°40' W 143°20'0 0.0 992.4 9.2
2014-Nov-22 21:00N 53°40' W 143°20'3 3.4 992.2 9.2
2014-Nov-22 20:00N 53°38' W 143°16'0 0.3 991.9 9.2
2014-Nov-22 19:00N 53°38' W 143°16'4 4.0 991.7 9.2
2014-Nov-22 18:00N 53°35' W 143°10'0 0.0 991.4 9.2
2014-Nov-22 17:00N 53°35' W 143°10'0 0.0 991.0 9.2
2014-Nov-22 16:00N 53°35' W 143°10'4 3.7 990.8 9.2
2014-Nov-22 15:00N 53°38' W 143°15'1 1.2 990.5 9.2
2014-Nov-22 14:00N 53°39' W 143°15'0 0.0 990.3 9.2
2014-Nov-22 13:00N 53°39' W 143°15'1 1.2 990.0 9.2
2014-Nov-22 12:00N 53°38' W 143°17'0 0.0 989.6 9.2
2014-Nov-22 11:00N 53°38' W 143°17'0 0.0 989.2 9.2
2014-Nov-22 10:00N 53°38' W 143°17'0 0.2 988.5 9.2
2014-Nov-22 09:00N 53°39' W 143°17'0 0.1 988.0 9.2
2014-Nov-22 07:00N 53°38' W 143°17'0 0.0 986.7 9.2
2014-Nov-22 06:00N 53°38' W 143°17'0 0.0 986.1 9.2
2014-Nov-22 05:00N 53°38' W 143°17'1 0.7 985.4 9.3
2014-Nov-22 04:00N 53°39' W 143°16'0 0.1 984.9 9.3
2014-Nov-22 02:00N 53°39' W 143°16'2 2.0 984.4 9.3
2014-Nov-22 01:00N 53°38' W 143°19'1 0.7 984.5 9.3
2014-Nov-22 00:00N 53°38' W 143°19'0 0.4 984.0 9.3
2014-Nov-21 23:00N 53°38' W 143°19'0 0.0 984.5 9.3
2014-Nov-21 21:00N 53°38' W 143°19'1 1.4 984.7 9.3
2014-Nov-21 20:00N 53°37' W 143°20'0 0.0 984.9 9.3
2014-Nov-21 19:00N 53°37' W 143°20'0 0.1 984.7 9.3
2014-Nov-21 16:00N 53°37' W 143°20'0 0.0 984.3 9.3
2014-Nov-21 15:00N 53°37' W 143°20'0 0.0 984.3 9.3
2014-Nov-21 14:00N 53°37' W 143°20'1 0.7 984.3 9.3
2014-Nov-21 13:00N 53°38' W 143°20'0 0.0 984.3 9.3
2014-Nov-21 12:00N 53°38' W 143°20'2 1.9 984.6 9.3
2014-Nov-21 11:00N 53°36' W 143°22'0 0.0 984.3 9.3
2014-Nov-21 07:00N 53°36' W 143°22'1 0.7 983.5 9.4
2014-Nov-21 06:00N 53°37' W 143°22'1 1.2 983.3 9.4
2014-Nov-21 05:00N 53°37' W 143°20'1 0.6 983.2 9.4
2014-Nov-21 04:00N 53°38' W 143°20'2 1.6 982.8 9.4
2014-Nov-21 03:00N 53°39' W 143°22'0 0.0 982.7 9.4
2014-Nov-21 02:00N 53°39' W 143°22'1 0.6 981.9 9.4
2014-Nov-21 01:00N 53°38' W 143°22'1 0.7 981.1 9.4
2014-Nov-21 00:00N 53°38' W 143°22'2 1.9 981.0 9.4
2014-Nov-20 23:00N 53°36' W 143°23'0 0.0 982.4 9.4
2014-Nov-20 22:00N 53°36' W 143°23'0 0.2 984.5 9.4
2014-Nov-20 21:00N 53°36' W 143°23'0 0.1 986.6 9.4
2014-Nov-20 19:00N 53°36' W 143°23'0 0.0 990.0 9.4
2014-Nov-20 18:00N 53°36' W 143°23'0 0.0 991.4 9.5
2014-Nov-20 17:00N 53°36' W 143°23'0 0.0 993.0 9.5
2014-Nov-20 16:00N 53°36' W 143°23'0 0.0 994.9 9.5
2014-Nov-20 15:00N 53°36' W 143°23'1 1.3 996.1 9.5
2014-Nov-20 14:00N 53°35' W 143°22'1 1.1 997.5 9.5
2014-Nov-20 13:00N 53°35' W 143°24'3 1.3 999.1 9.5
2014-Nov-20 11:00N 53°32' W 143°22'0 0.0 1001.8 9.5
2014-Nov-20 09:00N 53°32' W 143°22'0 0.0 1004.3 9.5
2014-Nov-20 07:00N 53°32' W 143°22'0 0.4 1006.2 9.5
2014-Nov-20 06:00N 53°32' W 143°23'1 0.3 1006.8 9.5
2014-Nov-20 04:00N 53°33' W 143°22'1 0.9 1008.9 9.5
2014-Nov-20 03:00N 53°32' W 143°23'0 0.0 1009.2 9.5
2014-Nov-20 02:00N 53°32' W 143°23'3 2.8 1009.7 9.5
2014-Nov-20 01:00N 53°35' W 143°21'0 0.0 1009.9 9.5
2014-Nov-20 00:00N 53°35' W 143°21'3 2.6 1010.3 9.5
2014-Nov-19 23:00N 53°32' W 143°23'0 0.0 1010.2 9.5
2014-Nov-19 22:00N 53°32' W 143°23'1 1.3 1010.6 9.5
2014-Nov-19 21:00N 53°31' W 143°23'0 0.0 1010.8 9.5
2014-Nov-19 20:00N 53°31' W 143°23'0 0.0 1011.2 9.5
2014-Nov-19 19:00N 53°31' W 143°23'0 0.0 1011.3 9.5
2014-Nov-19 18:00N 53°31' W 143°23'0 0.0 1011.4 9.5
2014-Nov-19 17:00N 53°31' W 143°23'2 1.8 1011.5 9.5
2014-Nov-19 16:00N 53°31' W 143°20'0 0.0 1011.9 9.5
2014-Nov-19 15:00N 53°31' W 143°20'1 1.4 1012.1 9.5
2014-Nov-19 14:00N 53°31' W 143°23'1 0.9 1012.5 9.5
2014-Nov-19 13:00N 53°31' W 143°22'1 0.9 1012.6 9.5
2014-Nov-19 12:00N 53°31' W 143°23'0 0.2 1012.6 9.5
2014-Nov-19 11:00N 53°31' W 143°23'1 1.3 1012.7 9.5
2014-Nov-19 10:00N 53°32' W 143°24'0 0.0 1012.7 9.5
2014-Nov-19 09:00N 53°32' W 143°24'1 1.4 1012.6 9.5
2014-Nov-19 08:00N 53°31' W 143°25'1 0.6 1012.4 9.5
2014-Nov-19 06:00N 53°31' W 143°23'0 0.0 1011.3 9.5
2014-Nov-19 05:00N 53°31' W 143°23'0 0.0 1011.1 9.5
2014-Nov-19 04:00N 53°31' W 143°23'1 1.3 1010.3 9.5
2014-Nov-19 03:00N 53°29' W 143°24'1 1.4 1009.7 9.5
2014-Nov-19 02:00N 53°29' W 143°26'3 3.4 1008.7 9.5
2014-Nov-19 01:00N 53°31' W 143°22'0 0.0 1007.8 9.5
2014-Nov-19 00:00N 53°31' W 143°22'1 0.6 1006.8 9.5
2014-Nov-18 23:00N 53°31' W 143°22'2 2.1 1005.4 9.6
2014-Nov-18 22:00N 53°32' W 143°25'0 0.0 1004.3 9.6
2014-Nov-18 21:00N 53°32' W 143°25'0 0.4 1003.1 9.6
2014-Nov-18 20:00N 53°32' W 143°24'0 0.3 1001.8 9.5
2014-Nov-18 19:00N 53°32' W 143°24'1 0.9 1000.1 9.5
2014-Nov-18 18:00N 53°32' W 143°25'3 3.5 998.1 9.5
2014-Nov-18 17:00N 53°29' W 143°29'0 0.0 995.9 9.5
2014-Nov-18 16:00N 53°29' W 143°29'0 0.0 993.8 9.5
2014-Nov-18 15:00N 53°29' W 143°29'3 3.2 991.9 9.5
2014-Nov-18 14:00N 53°32' W 143°26'1 0.9 990.2 9.5
2014-Nov-18 13:00N 53°31' W 143°26'1 1.2 989.1 9.5
2014-Nov-18 12:00N 53°32' W 143°28'0 0.0 988.9 9.5
2014-Nov-18 11:00N 53°32' W 143°28'0 0.0 989.4 9.6
2014-Nov-18 10:00N 53°32' W 143°28'2 1.0 990.4 9.6
2014-Nov-18 08:00N 53°30' W 143°26'1 1.0 992.0 9.6
2014-Nov-18 07:00N 53°31' W 143°27'1 1.1 993.3 9.6
2014-Nov-18 06:00N 53°30' W 143°26'1 1.4 994.6 9.6
2014-Nov-18 05:00N 53°31' W 143°27'1 1.2 996.6 9.6
2014-Nov-18 04:00N 53°30' W 143°27'0 0.0 998.5 9.6
2014-Nov-18 03:00N 53°30' W 143°27'1 0.8 1000.8 9.6
2014-Nov-18 02:00N 53°30' W 143°28'2 2.1 1002.7 9.6
2014-Nov-18 01:00N 53°28' W 143°28'0 0.0 1004.5 9.6
2014-Nov-18 00:00N 53°28' W 143°28'2 2.2 1006.3 9.6
2014-Nov-17 23:00N 53°27' W 143°24'2 1.5 1007.6 9.6
2014-Nov-17 22:00N 53°28' W 143°22'0 0.0 1008.9 9.6
2014-Nov-17 21:00N 53°28' W 143°22'1 0.7 1010.3 9.6
2014-Nov-17 20:00N 53°28' W 143°22'0 0.0 1011.5 9.6
2014-Nov-17 19:00N 53°28' W 143°22'0 0.0 1012.4 9.6
2014-Nov-17 18:00N 53°28' W 143°22'0 0.0 1013.2 9.6
2014-Nov-17 17:00N 53°28' W 143°22'0 0.0 1014.0 9.6
2014-Nov-17 16:00N 53°28' W 143°22'2 1.9 1015.1 9.6
2014-Nov-17 15:00N 53°28' W 143°25'0 0.0 1016.4 9.6
2014-Nov-17 14:00N 53°28' W 143°25'1 1.1 1017.5 9.6
2014-Nov-17 13:00N 53°28' W 143°23'0 0.0 1018.4 9.6
2014-Nov-17 12:00N 53°28' W 143°23'2 1.0 1019.5 9.6
2014-Nov-17 10:00N 53°26' W 143°22'1 0.3 1020.1 9.6
2014-Nov-17 08:00N 53°26' W 143°22'0 0.0 1021.0 9.6
2014-Nov-17 07:00N 53°26' W 143°22'1 0.9 1021.5 9.6
2014-Nov-17 06:00N 53°27' W 143°20'0 0.0 1021.8 9.6
2014-Nov-17 05:00N 53°27' W 143°20'0 0.3 1021.5 9.6
2014-Nov-17 04:00N 53°27' W 143°20'2 1.8 1021.1 9.6
2014-Nov-17 03:00N 53°28' W 143°23'0 0.0 1020.5 9.6
2014-Nov-17 02:00N 53°28' W 143°23'1 1.3 1020.1 9.6
2014-Nov-17 01:00N 53°29' W 143°23'0 0.0 1019.5 9.6
2014-Nov-17 00:00N 53°29' W 143°23'1 0.8 1018.9 9.6
2014-Nov-16 23:00N 53°28' W 143°23'0 0.2 1018.2 9.6
2014-Nov-16 22:00N 53°28' W 143°23'2 2.0 1017.6 9.6
2014-Nov-16 21:00N 53°29' W 143°27'2 2.3 1017.0 9.6
2014-Nov-16 20:00N 53°27' W 143°24'0 0.2 1016.2 9.6
2014-Nov-16 18:00N 53°27' W 143°23'1 1.3 1014.1 9.6
2014-Nov-16 17:00N 53°26' W 143°24'1 0.7 1012.9 9.6
2014-Nov-16 16:00N 53°26' W 143°23'0 0.0 1011.5 9.6
2014-Nov-16 15:00N 53°26' W 143°23'1 1.5 1010.1 9.6
2014-Nov-16 14:00N 53°28' W 143°25'2 1.7 1008.5 9.6
2014-Nov-16 13:00N 53°26' W 143°23'2 1.6 1007.3 9.6
2014-Nov-16 12:00N 53°27' W 143°25'0 0.2 1006.5 9.6
2014-Nov-16 11:00N 53°27' W 143°25'0 0.2 1005.9 9.6
2014-Nov-16 10:00N 53°27' W 143°25'0 0.0 1004.6 9.6
2014-Nov-16 07:00N 53°27' W 143°25'0 0.0 1004.2 9.6
2014-Nov-16 06:00N 53°27' W 143°25'0 0.0 1004.7 9.6
2014-Nov-16 05:00N 53°27' W 143°25'3 2.5 1005.3 9.6
2014-Nov-16 04:00N 53°25' W 143°26'0 0.0 1005.5 9.6
2014-Nov-16 03:00N 53°25' W 143°26'1 1.1 1006.4 9.6
2014-Nov-16 02:00N 53°25' W 143°25'0 0.0 1007.1 9.6
2014-Nov-16 01:00N 53°25' W 143°25'3 2.6 1007.9 9.6
2014-Nov-16 00:00N 53°24' W 143°20'0 0.0 1009.2 9.6
2014-Nov-15 22:00N 53°24' W 143°20'1 0.5 1011.1 9.7
2014-Nov-15 20:00N 53°25' W 143°22'2 1.8 1011.9 9.7
2014-Nov-15 19:00N 53°25' W 143°25'0 0.0 1011.7 9.7
2014-Nov-15 18:00N 53°25' W 143°25'0 0.0 1011.3 9.7
2014-Nov-15 17:00N 53°25' W 143°25'1 0.7 1010.9 9.7
2014-Nov-15 16:00N 53°25' W 143°26'0 0.0 1010.5 9.7
2014-Nov-15 15:00N 53°25' W 143°26'4 4.1 1010.5 9.7
2014-Nov-15 14:00N 53°22' W 143°21'0 0.0 1010.1 9.7
2014-Nov-15 13:00N 53°22' W 143°21'0 0.0 1009.7 9.7
2014-Nov-15 12:00N 53°22' W 143°21'0 0.0 1009.0 9.7
2014-Nov-15 11:00N 53°22' W 143°21'0 0.0 1008.7 9.7
2014-Nov-15 10:00N 53°22' W 143°21'0 0.0 1009.5 9.7
2014-Nov-15 06:00N 53°22' W 143°21'1 1.4 1012.2 9.8
2014-Nov-15 05:00N 53°23' W 143°22'1 1.3 1012.4 9.8
2014-Nov-15 04:00N 53°22' W 143°22'0 0.0 1012.6 9.8
2014-Nov-15 03:00N 53°22' W 143°22'5 4.9 1012.9 9.8
2014-Nov-15 02:00N 53°19' W 143°29'0 0.0 1013.1 9.8
2014-Nov-15 01:00N 53°19' W 143°29'0 0.0 1013.3 9.8
2014-Nov-15 00:00N 53°19' W 143°29'0 0.1 1013.6 9.8
2014-Nov-14 23:00N 53°19' W 143°29'2 2.4 1013.9 9.8
2014-Nov-14 22:00N 53°19' W 143°25'3 2.5 1014.1 9.8
2014-Nov-14 21:00N 53°19' W 143°20'0 0.0 1014.2 9.8
2014-Nov-14 20:00N 53°19' W 143°20'0 0.0 1014.2 9.9
2014-Nov-14 19:00N 53°19' W 143°20'0 0.0 1013.6 9.8
2014-Nov-14 18:00N 53°19' W 143°20'0 0.0 1013.4 9.8
2014-Nov-14 17:00N 53°19' W 143°20'2 2.1 1012.8 9.8
2014-Nov-14 16:00N 53°21' W 143°19'0 0.2 1012.5 9.8
2014-Nov-14 15:00N 53°21' W 143°19'0 0.2 1012.3 9.8
2014-Nov-14 14:00N 53°21' W 143°19'2 1.6 1011.9 9.8
2014-Nov-14 13:00N 53°20' W 143°21'1 0.6 1011.7 9.8
2014-Nov-14 12:00N 53°20' W 143°21'1 1.2 1011.4 9.9
2014-Nov-14 11:00N 53°19' W 143°23'0 0.0 1010.9 9.8
2014-Nov-14 10:00N 53°19' W 143°23'0 0.0 1010.4 9.8
2014-Nov-14 08:00N 53°19' W 143°23'1 0.7 1009.7 9.9
2014-Nov-14 06:00N 53°18' W 143°21'0 0.2 1008.8 9.9
2014-Nov-14 05:00N 53°19' W 143°21'1 1.4 1008.6 9.9
2014-Nov-14 04:00N 53°17' W 143°20'1 1.1 1008.6 9.9
2014-Nov-14 03:00N 53°17' W 143°22'0 0.4 1008.7 9.9
2014-Nov-14 02:00N 53°17' W 143°21'1 0.9 1008.7 9.9
2014-Nov-14 01:00N 53°17' W 143°20'1 1.0 1008.7 9.9
2014-Nov-14 00:00N 53°17' W 143°21'   1009.0 9.9
Track history (hours):
 
Tides and Currents Weather Stations Pressure Air Temp Water Temp Dewpoint Dewpoint Depression Visibility Wind Speed Wind Dir Waves Ship Positions

Drifting buoy 46762

Last reported at 2014-Nov-24 00:00 UTC. Time now 2014-Nov-24 01:16 UTC.
Position N 53°41' W 143°16'.

Barometer 1003.2 mb
Water temperature 9.2 ° C

Date/timePositionNaut miles runAvg speedWind from/ knotsBaromVisibWave heightAir tempDewpointWater temp
2014-Nov-24 00:00N 53°41' W 143°16'1 1.3 1003.2 9.2
2014-Nov-23 23:00N 53°40' W 143°15'1 0.7 1003.2 9.2
2014-Nov-23 22:00N 53°40' W 143°14'1 1.2 1003.2 9.2
2014-Nov-23 21:00N 53°41' W 143°14'0 0.0 1003.3 9.2
2014-Nov-23 20:00N 53°41' W 143°14'0 0.4 1003.2 9.2
2014-Nov-23 19:00N 53°41' W 143°15'1 0.3 1002.9 9.2
2014-Nov-23 17:00N 53°41' W 143°16'0 0.0 1002.5 9.2
2014-Nov-23 16:00N 53°41' W 143°16'1 0.7 1002.2 9.2
2014-Nov-23 15:00N 53°41' W 143°16'2 1.9 1002.1 9.2
2014-Nov-23 14:00N 53°40' W 143°19'0 0.0 1002.0 9.2
2014-Nov-23 13:00N 53°40' W 143°19'0 0.0 1001.8 9.2
2014-Nov-23 12:00N 53°40' W 143°19'1 1.4 1001.6 9.2
2014-Nov-23 11:00N 53°39' W 143°17'1 1.4 1001.1 9.2
2014-Nov-23 10:00N 53°40' W 143°19'1 0.7 1000.7 9.2
2014-Nov-23 08:00N 53°39' W 143°17'2 0.9 999.4 9.2
2014-Nov-23 06:00N 53°39' W 143°14'1 1.3 997.9 9.2
2014-Nov-23 05:00N 53°40' W 143°14'2 1.9 997.3 9.2
2014-Nov-23 04:00N 53°40' W 143°17'0 0.0 996.7 9.2
2014-Nov-23 03:00N 53°40' W 143°17'2 1.6 996.0 9.2
2014-Nov-23 02:00N 53°41' W 143°19'1 0.5 995.1 9.2
2014-Nov-23 00:00N 53°41' W 143°17'0 0.0 993.6 9.2
2014-Nov-22 23:00N 53°41' W 143°17'2 2.4 993.0 9.2
2014-Nov-22 22:00N 53°40' W 143°20'0 0.0 992.4 9.2
2014-Nov-22 21:00N 53°40' W 143°20'3 3.4 992.2 9.2
2014-Nov-22 20:00N 53°38' W 143°16'0 0.3 991.9 9.2
2014-Nov-22 19:00N 53°38' W 143°16'4 4.0 991.7 9.2
2014-Nov-22 18:00N 53°35' W 143°10'0 0.0 991.4 9.2
2014-Nov-22 17:00N 53°35' W 143°10'0 0.0 991.0 9.2
2014-Nov-22 16:00N 53°35' W 143°10'4 3.7 990.8 9.2
2014-Nov-22 15:00N 53°38' W 143°15'1 1.2 990.5 9.2
2014-Nov-22 14:00N 53°39' W 143°15'0 0.0 990.3 9.2
2014-Nov-22 13:00N 53°39' W 143°15'1 1.2 990.0 9.2
2014-Nov-22 12:00N 53°38' W 143°17'0 0.0 989.6 9.2
2014-Nov-22 11:00N 53°38' W 143°17'0 0.0 989.2 9.2
2014-Nov-22 10:00N 53°38' W 143°17'0 0.2 988.5 9.2
2014-Nov-22 09:00N 53°39' W 143°17'0 0.1 988.0 9.2
2014-Nov-22 07:00N 53°38' W 143°17'0 0.0 986.7 9.2
2014-Nov-22 06:00N 53°38' W 143°17'0 0.0 986.1 9.2
2014-Nov-22 05:00N 53°38' W 143°17'1 0.7 985.4 9.3
2014-Nov-22 04:00N 53°39' W 143°16'0 0.1 984.9 9.3
2014-Nov-22 02:00N 53°39' W 143°16'2 2.0 984.4 9.3
2014-Nov-22 01:00N 53°38' W 143°19'1 0.7 984.5 9.3
2014-Nov-22 00:00N 53°38' W 143°19'0 0.4 984.0 9.3
2014-Nov-21 23:00N 53°38' W 143°19'0 0.0 984.5 9.3
2014-Nov-21 21:00N 53°38' W 143°19'1 1.4 984.7 9.3
2014-Nov-21 20:00N 53°37' W 143°20'0 0.0 984.9 9.3
2014-Nov-21 19:00N 53°37' W 143°20'0 0.1 984.7 9.3
2014-Nov-21 16:00N 53°37' W 143°20'0 0.0 984.3 9.3
2014-Nov-21 15:00N 53°37' W 143°20'0 0.0 984.3 9.3
2014-Nov-21 14:00N 53°37' W 143°20'1 0.7 984.3 9.3
2014-Nov-21 13:00N 53°38' W 143°20'0 0.0 984.3 9.3
2014-Nov-21 12:00N 53°38' W 143°20'2 1.9 984.6 9.3
2014-Nov-21 11:00N 53°36' W 143°22'0 0.0 984.3 9.3
2014-Nov-21 07:00N 53°36' W 143°22'1 0.7 983.5 9.4
2014-Nov-21 06:00N 53°37' W 143°22'1 1.2 983.3 9.4
2014-Nov-21 05:00N 53°37' W 143°20'1 0.6 983.2 9.4
2014-Nov-21 04:00N 53°38' W 143°20'2 1.6 982.8 9.4
2014-Nov-21 03:00N 53°39' W 143°22'0 0.0 982.7 9.4
2014-Nov-21 02:00N 53°39' W 143°22'1 0.6 981.9 9.4
2014-Nov-21 01:00N 53°38' W 143°22'1 0.7 981.1 9.4
2014-Nov-21 00:00N 53°38' W 143°22'2 1.9 981.0 9.4
2014-Nov-20 23:00N 53°36' W 143°23'0 0.0 982.4 9.4
2014-Nov-20 22:00N 53°36' W 143°23'0 0.2 984.5 9.4
2014-Nov-20 21:00N 53°36' W 143°23'0 0.1 986.6 9.4
2014-Nov-20 19:00N 53°36' W 143°23'0 0.0 990.0 9.4
2014-Nov-20 18:00N 53°36' W 143°23'0 0.0 991.4 9.5
2014-Nov-20 17:00N 53°36' W 143°23'0 0.0 993.0 9.5
2014-Nov-20 16:00N 53°36' W 143°23'0 0.0 994.9 9.5
2014-Nov-20 15:00N 53°36' W 143°23'1 1.3 996.1 9.5
2014-Nov-20 14:00N 53°35' W 143°22'1 1.1 997.5 9.5
2014-Nov-20 13:00N 53°35' W 143°24'3 1.3 999.1 9.5
2014-Nov-20 11:00N 53°32' W 143°22'0 0.0 1001.8 9.5
2014-Nov-20 09:00N 53°32' W 143°22'0 0.0 1004.3 9.5
2014-Nov-20 07:00N 53°32' W 143°22'0 0.4 1006.2 9.5
2014-Nov-20 06:00N 53°32' W 143°23'1 0.3 1006.8 9.5
2014-Nov-20 04:00N 53°33' W 143°22'1 0.9 1008.9 9.5
2014-Nov-20 03:00N 53°32' W 143°23'0 0.0 1009.2 9.5
2014-Nov-20 02:00N 53°32' W 143°23'3 2.8 1009.7 9.5
2014-Nov-20 01:00N 53°35' W 143°21'0 0.0 1009.9 9.5
2014-Nov-20 00:00N 53°35' W 143°21'3 2.6 1010.3 9.5
2014-Nov-19 23:00N 53°32' W 143°23'0 0.0 1010.2 9.5
2014-Nov-19 22:00N 53°32' W 143°23'1 1.3 1010.6 9.5
2014-Nov-19 21:00N 53°31' W 143°23'0 0.0 1010.8 9.5
2014-Nov-19 20:00N 53°31' W 143°23'0 0.0 1011.2 9.5
2014-Nov-19 19:00N 53°31' W 143°23'0 0.0 1011.3 9.5
2014-Nov-19 18:00N 53°31' W 143°23'0 0.0 1011.4 9.5
2014-Nov-19 17:00N 53°31' W 143°23'2 1.8 1011.5 9.5
2014-Nov-19 16:00N 53°31' W 143°20'0 0.0 1011.9 9.5
2014-Nov-19 15:00N 53°31' W 143°20'1 1.4 1012.1 9.5
2014-Nov-19 14:00N 53°31' W 143°23'1 0.9 1012.5 9.5
2014-Nov-19 13:00N 53°31' W 143°22'1 0.9 1012.6 9.5
2014-Nov-19 12:00N 53°31' W 143°23'0 0.2 1012.6 9.5
2014-Nov-19 11:00N 53°31' W 143°23'1 1.3 1012.7 9.5
2014-Nov-19 10:00N 53°32' W 143°24'0 0.0 1012.7 9.5
2014-Nov-19 09:00N 53°32' W 143°24'1 1.4 1012.6 9.5
2014-Nov-19 08:00N 53°31' W 143°25'1 0.6 1012.4 9.5
2014-Nov-19 06:00N 53°31' W 143°23'0 0.0 1011.3 9.5
2014-Nov-19 05:00N 53°31' W 143°23'0 0.0 1011.1 9.5
2014-Nov-19 04:00N 53°31' W 143°23'1 1.3 1010.3 9.5
2014-Nov-19 03:00N 53°29' W 143°24'1 1.4 1009.7 9.5
2014-Nov-19 02:00N 53°29' W 143°26'3 3.4 1008.7 9.5
2014-Nov-19 01:00N 53°31' W 143°22'0 0.0 1007.8 9.5
2014-Nov-19 00:00N 53°31' W 143°22'1 0.6 1006.8 9.5
2014-Nov-18 23:00N 53°31' W 143°22'2 2.1 1005.4 9.6
2014-Nov-18 22:00N 53°32' W 143°25'0 0.0 1004.3 9.6
2014-Nov-18 21:00N 53°32' W 143°25'0 0.4 1003.1 9.6
2014-Nov-18 20:00N 53°32' W 143°24'0 0.3 1001.8 9.5
2014-Nov-18 19:00N 53°32' W 143°24'1 0.9 1000.1 9.5
2014-Nov-18 18:00N 53°32' W 143°25'3 3.5 998.1 9.5
2014-Nov-18 17:00N 53°29' W 143°29'0 0.0 995.9 9.5
2014-Nov-18 16:00N 53°29' W 143°29'0 0.0 993.8 9.5
2014-Nov-18 15:00N 53°29' W 143°29'3 3.2 991.9 9.5
2014-Nov-18 14:00N 53°32' W 143°26'1 0.9 990.2 9.5
2014-Nov-18 13:00N 53°31' W 143°26'1 1.2 989.1 9.5
2014-Nov-18 12:00N 53°32' W 143°28'0 0.0 988.9 9.5
2014-Nov-18 11:00N 53°32' W 143°28'0 0.0 989.4 9.6
2014-Nov-18 10:00N 53°32' W 143°28'2 1.0 990.4 9.6
2014-Nov-18 08:00N 53°30' W 143°26'1 1.0 992.0 9.6
2014-Nov-18 07:00N 53°31' W 143°27'1 1.1 993.3 9.6
2014-Nov-18 06:00N 53°30' W 143°26'1 1.4 994.6 9.6
2014-Nov-18 05:00N 53°31' W 143°27'1 1.2 996.6 9.6
2014-Nov-18 04:00N 53°30' W 143°27'0 0.0 998.5 9.6
2014-Nov-18 03:00N 53°30' W 143°27'1 0.8 1000.8 9.6
2014-Nov-18 02:00N 53°30' W 143°28'2 2.1 1002.7 9.6
2014-Nov-18 01:00N 53°28' W 143°28'0 0.0 1004.5 9.6
2014-Nov-18 00:00N 53°28' W 143°28'2 2.2 1006.3 9.6
2014-Nov-17 23:00N 53°27' W 143°24'2 1.5 1007.6 9.6
2014-Nov-17 22:00N 53°28' W 143°22'0 0.0 1008.9 9.6
2014-Nov-17 21:00N 53°28' W 143°22'1 0.7 1010.3 9.6
2014-Nov-17 20:00N 53°28' W 143°22'0 0.0 1011.5 9.6
2014-Nov-17 19:00N 53°28' W 143°22'0 0.0 1012.4 9.6
2014-Nov-17 18:00N 53°28' W 143°22'0 0.0 1013.2 9.6
2014-Nov-17 17:00N 53°28' W 143°22'0 0.0 1014.0 9.6
2014-Nov-17 16:00N 53°28' W 143°22'2 1.9 1015.1 9.6
2014-Nov-17 15:00N 53°28' W 143°25'0 0.0 1016.4 9.6
2014-Nov-17 14:00N 53°28' W 143°25'1 1.1 1017.5 9.6
2014-Nov-17 13:00N 53°28' W 143°23'0 0.0 1018.4 9.6
2014-Nov-17 12:00N 53°28' W 143°23'2 1.0 1019.5 9.6
2014-Nov-17 10:00N 53°26' W 143°22'1 0.3 1020.1 9.6
2014-Nov-17 08:00N 53°26' W 143°22'0 0.0 1021.0 9.6
2014-Nov-17 07:00N 53°26' W 143°22'1 0.9 1021.5 9.6
2014-Nov-17 06:00N 53°27' W 143°20'0 0.0 1021.8 9.6
2014-Nov-17 05:00N 53°27' W 143°20'0 0.3 1021.5 9.6
2014-Nov-17 04:00N 53°27' W 143°20'2 1.8 1021.1 9.6
2014-Nov-17 03:00N 53°28' W 143°23'0 0.0 1020.5 9.6
2014-Nov-17 02:00N 53°28' W 143°23'1 1.3 1020.1 9.6
2014-Nov-17 01:00N 53°29' W 143°23'0 0.0 1019.5 9.6
2014-Nov-17 00:00N 53°29' W 143°23'1 0.8 1018.9 9.6
2014-Nov-16 23:00N 53°28' W 143°23'0 0.2 1018.2 9.6
2014-Nov-16 22:00N 53°28' W 143°23'2 2.0 1017.6 9.6
2014-Nov-16 21:00N 53°29' W 143°27'2 2.3 1017.0 9.6
2014-Nov-16 20:00N 53°27' W 143°24'0 0.2 1016.2 9.6
2014-Nov-16 18:00N 53°27' W 143°23'1 1.3 1014.1 9.6
2014-Nov-16 17:00N 53°26' W 143°24'1 0.7 1012.9 9.6
2014-Nov-16 16:00N 53°26' W 143°23'0 0.0 1011.5 9.6
2014-Nov-16 15:00N 53°26' W 143°23'1 1.5 1010.1 9.6
2014-Nov-16 14:00N 53°28' W 143°25'2 1.7 1008.5 9.6
2014-Nov-16 13:00N 53°26' W 143°23'2 1.6 1007.3 9.6
2014-Nov-16 12:00N 53°27' W 143°25'0 0.2 1006.5 9.6
2014-Nov-16 11:00N 53°27' W 143°25'0 0.2 1005.9 9.6
2014-Nov-16 10:00N 53°27' W 143°25'0 0.0 1004.6 9.6
2014-Nov-16 07:00N 53°27' W 143°25'0 0.0 1004.2 9.6
2014-Nov-16 06:00N 53°27' W 143°25'0 0.0 1004.7 9.6
2014-Nov-16 05:00N 53°27' W 143°25'3 2.5 1005.3 9.6
2014-Nov-16 04:00N 53°25' W 143°26'0 0.0 1005.5 9.6
2014-Nov-16 03:00N 53°25' W 143°26'1 1.1 1006.4 9.6
2014-Nov-16 02:00N 53°25' W 143°25'0 0.0 1007.1 9.6
2014-Nov-16 01:00N 53°25' W 143°25'3 2.6 1007.9 9.6
2014-Nov-16 00:00N 53°24' W 143°20'0 0.0 1009.2 9.6
2014-Nov-15 22:00N 53°24' W 143°20'1 0.5 1011.1 9.7
2014-Nov-15 20:00N 53°25' W 143°22'2 1.8 1011.9 9.7
2014-Nov-15 19:00N 53°25' W 143°25'0 0.0 1011.7 9.7
2014-Nov-15 18:00N 53°25' W 143°25'0 0.0 1011.3 9.7
2014-Nov-15 17:00N 53°25' W 143°25'1 0.7 1010.9 9.7
2014-Nov-15 16:00N 53°25' W 143°26'0 0.0 1010.5 9.7
2014-Nov-15 15:00N 53°25' W 143°26'4 4.1 1010.5 9.7
2014-Nov-15 14:00N 53°22' W 143°21'0 0.0 1010.1 9.7
2014-Nov-15 13:00N 53°22' W 143°21'0 0.0 1009.7 9.7
2014-Nov-15 12:00N 53°22' W 143°21'0 0.0 1009.0 9.7
2014-Nov-15 11:00N 53°22' W 143°21'0 0.0 1008.7 9.7
2014-Nov-15 10:00N 53°22' W 143°21'0 0.0 1009.5 9.7
2014-Nov-15 06:00N 53°22' W 143°21'1 1.4 1012.2 9.8
2014-Nov-15 05:00N 53°23' W 143°22'1 1.3 1012.4 9.8
2014-Nov-15 04:00N 53°22' W 143°22'0 0.0 1012.6 9.8
2014-Nov-15 03:00N 53°22' W 143°22'5 4.9 1012.9 9.8
2014-Nov-15 02:00N 53°19' W 143°29'0 0.0 1013.1 9.8
2014-Nov-15 01:00N 53°19' W 143°29'0 0.0 1013.3 9.8
2014-Nov-15 00:00N 53°19' W 143°29'0 0.1 1013.6 9.8
2014-Nov-14 23:00N 53°19' W 143°29'2 2.4 1013.9 9.8
2014-Nov-14 22:00N 53°19' W 143°25'3 2.5 1014.1 9.8
2014-Nov-14 21:00N 53°19' W 143°20'0 0.0 1014.2 9.8
2014-Nov-14 20:00N 53°19' W 143°20'0 0.0 1014.2 9.9
2014-Nov-14 19:00N 53°19' W 143°20'0 0.0 1013.6 9.8
2014-Nov-14 18:00N 53°19' W 143°20'0 0.0 1013.4 9.8
2014-Nov-14 17:00N 53°19' W 143°20'2 2.1 1012.8 9.8
2014-Nov-14 16:00N 53°21' W 143°19'0 0.2 1012.5 9.8
2014-Nov-14 15:00N 53°21' W 143°19'0 0.2 1012.3 9.8
2014-Nov-14 14:00N 53°21' W 143°19'2 1.6 1011.9 9.8
2014-Nov-14 13:00N 53°20' W 143°21'1 0.6 1011.7 9.8
2014-Nov-14 12:00N 53°20' W 143°21'1 1.2 1011.4 9.9
2014-Nov-14 11:00N 53°19' W 143°23'0 0.0 1010.9 9.8
2014-Nov-14 10:00N 53°19' W 143°23'0 0.0 1010.4 9.8
2014-Nov-14 08:00N 53°19' W 143°23'1 0.7 1009.7 9.9
2014-Nov-14 06:00N 53°18' W 143°21'0 0.2 1008.8 9.9
2014-Nov-14 05:00N 53°19' W 143°21'1 1.4 1008.6 9.9
2014-Nov-14 04:00N 53°17' W 143°20'1 1.1 1008.6 9.9
2014-Nov-14 03:00N 53°17' W 143°22'0 0.4 1008.7 9.9
2014-Nov-14 02:00N 53°17' W 143°21'1 0.9 1008.7 9.9
2014-Nov-14 01:00N 53°17' W 143°20'1 1.0 1008.7 9.9
2014-Nov-14 00:00N 53°17' W 143°21'   1009.0 9.9

Dump ship's entire track history